Time;durP1;ratioP1;P1;durP2;ratioP2;P2;SDS_P1;SDS_P2;PMS_P1;PMS_P2;Temp;Humidity;BMP_temperature;BMP_pressure;BME280_temperature;BME280_humidity;BME280_pressure;Samples;Min_cycle;Max_cycle;Signal;HPM_P1;HPM_P2
2023/04/23 00:01:17;;;;;;;20.87;4.13;;;;;;;;;;5113256;28;20194;-80
2023/04/23 00:03:44;;;;;;;17.67;4.07;;;;;;;;;;5112869;28;20914;-80
2023/04/23 00:06:12;;;;;;;14.47;3.97;;;;;;;;;;5112836;28;20662;-80
2023/04/23 00:08:41;;;;;;;16.97;3.87;;;;;;;;;;5112978;28;20681;-79
2023/04/23 00:11:09;;;;;;;16.37;3.70;;;;;;;;;;5112898;28;20645;-80
2023/04/23 00:13:37;;;;;;;13.80;3.73;;;;;;;;;;5113033;28;20573;-80
2023/04/23 00:16:05;;;;;;;13.60;3.73;;;;;;;;;;5113211;28;20194;-80
2023/04/23 00:18:32;;;;;;;13.87;3.73;;;;;;;;;;5112589;28;20198;-80
2023/04/23 00:20:59;;;;;;;18.00;4.53;;;;;;;;;;5113135;28;20193;-81
2023/04/23 00:23:26;;;;;;;14.07;4.30;;;;;;;;;;5113049;28;20280;-80
2023/04/23 00:25:55;;;;;;;16.67;4.10;;;;;;;;;;5112901;28;20292;-80
2023/04/23 00:28:22;;;;;;;16.77;4.47;;;;;;;;;;5112681;28;20233;-79
2023/04/23 00:30:49;;;;;;;17.10;4.70;;;;;;;;;;5112740;28;20316;-79
2023/04/23 00:33:17;;;;;;;14.33;4.70;;;;;;;;;;5112656;28;20636;-80
2023/04/23 00:35:44;;;;;;;18.67;4.80;;;;;;;;;;5112878;28;20272;-80
2023/04/23 00:38:11;;;;;;;14.50;5.10;;;;;;;;;;5112550;28;20573;-79
2023/04/23 00:40:38;;;;;;;15.47;5.13;;;;;;;;;;5112827;28;20611;-80
2023/04/23 00:43:08;;;;;;;20.60;5.37;;;;;;;;;;5112253;28;20317;-80
2023/04/23 00:45:35;;;;;;;19.70;4.90;;;;;;;;;;5112582;28;20204;-80
2023/04/23 00:48:03;;;;;;;20.80;4.47;;;;;;;;;;5112154;28;20253;-79
2023/04/23 00:50:30;;;;;;;14.87;4.50;;;;;;;;;;5112042;28;20235;-80
2023/04/23 00:52:58;;;;;;;15.67;4.10;;;;;;;;;;5112455;28;20639;-81
2023/04/23 00:55:25;;;;;;;20.73;4.97;;;;;;;;;;5112488;28;20202;-80
2023/04/23 00:57:53;;;;;;;16.93;4.53;;;;;;;;;;5111833;28;20284;-80
2023/04/23 01:00:22;;;;;;;16.30;4.73;;;;;;;;;;5112410;28;20201;-79
2023/04/23 01:02:51;;;;;;;15.70;4.20;;;;;;;;;;5111736;28;20934;-80
2023/04/23 01:05:19;;;;;;;15.03;3.93;;;;;;;;;;5112215;28;20198;-80
2023/04/23 01:07:47;;;;;;;11.83;4.10;;;;;;;;;;5112250;28;20194;-80
2023/04/23 01:10:14;;;;;;;15.13;4.33;;;;;;;;;;5111998;28;20273;-80
2023/04/23 01:12:41;;;;;;;18.00;4.83;;;;;;;;;;5111751;28;20288;-80
2023/04/23 01:15:09;;;;;;;20.93;4.20;;;;;;;;;;5111538;28;20295;-79
2023/04/23 01:17:37;;;;;;;17.00;4.07;;;;;;;;;;5112011;28;20280;-80
2023/04/23 01:20:06;;;;;;;15.73;4.50;;;;;;;;;;5112202;28;20293;-80
2023/04/23 01:22:35;;;;;;;14.80;4.00;;;;;;;;;;5111765;28;20665;-80
2023/04/23 01:25:03;;;;;;;17.33;4.20;;;;;;;;;;5111897;28;20748;-80
2023/04/23 01:27:30;;;;;;;14.20;4.17;;;;;;;;;;5103212;28;20222;-80
2023/04/23 01:29:58;;;;;;;13.30;4.23;;;;;;;;;;5095428;28;20317;-79
2023/04/23 01:32:25;;;;;;;12.30;3.80;;;;;;;;;;5091544;28;20198;-80
2023/04/23 01:34:53;;;;;;;19.70;4.07;;;;;;;;;;5091775;28;20237;-79
2023/04/23 01:37:22;;;;;;;13.83;3.80;;;;;;;;;;5091360;28;20574;-80
2023/04/23 01:39:50;;;;;;;15.93;3.90;;;;;;;;;;5091383;28;20635;-80
2023/04/23 01:42:18;;;;;;;20.53;4.93;;;;;;;;;;5091266;28;20340;-80
2023/04/23 01:44:45;;;;;;;21.57;3.83;;;;;;;;;;5090825;28;20731;-79
2023/04/23 01:47:12;;;;;;;14.20;3.97;;;;;;;;;;5091130;28;20197;-79
2023/04/23 01:49:39;;;;;;;13.60;4.10;;;;;;;;;;5091360;28;20281;-79
2023/04/23 01:52:07;;;;;;;14.00;4.20;;;;;;;;;;5091134;28;20221;-79
2023/04/23 01:54:34;;;;;;;17.13;4.33;;;;;;;;;;5091644;28;20291;-79
2023/04/23 01:57:02;;;;;;;12.70;3.60;;;;;;;;;;5093497;28;20231;-80
2023/04/23 01:59:30;;;;;;;14.27;3.93;;;;;;;;;;5110994;28;20673;-80
2023/04/23 02:01:57;;;;;;;13.47;4.07;;;;;;;;;;5111283;28;20198;-79
2023/04/23 02:04:24;;;;;;;11.30;3.30;;;;;;;;;;5111486;28;20293;-80
2023/04/23 02:06:52;;;;;;;16.83;3.67;;;;;;;;;;5111159;28;20228;-80
2023/04/23 02:09:20;;;;;;;13.50;3.80;;;;;;;;;;5111698;28;20330;-80
2023/04/23 02:11:47;;;;;;;11.60;3.67;;;;;;;;;;5111600;28;20228;-78
2023/04/23 02:14:16;;;;;;;17.07;4.10;;;;;;;;;;5110936;28;20667;-78
2023/04/23 02:16:43;;;;;;;13.73;4.00;;;;;;;;;;5111157;28;20292;-80
2023/04/23 02:19:11;;;;;;;9.17;3.63;;;;;;;;;;5111533;28;20580;-79
2023/04/23 02:21:38;;;;;;;12.33;3.83;;;;;;;;;;5111208;28;20229;-80
2023/04/23 02:24:05;;;;;;;14.73;4.17;;;;;;;;;;5111518;28;20614;-79
2023/04/23 02:26:33;;;;;;;14.17;4.00;;;;;;;;;;5111189;28;20197;-79
2023/04/23 02:29:00;;;;;;;14.27;4.40;;;;;;;;;;5111180;28;20204;-78
2023/04/23 02:31:29;;;;;;;17.63;4.03;;;;;;;;;;5114902;28;20685;-79
2023/04/23 02:33:56;;;;;;;12.50;3.80;;;;;;;;;;5114719;28;20288;-78
2023/04/23 02:36:24;;;;;;;17.37;4.30;;;;;;;;;;5114897;28;20230;-78
2023/04/23 02:38:51;;;;;;;16.23;4.00;;;;;;;;;;5114597;28;20224;-78
2023/04/23 02:41:18;;;;;;;14.47;3.90;;;;;;;;;;5114945;28;20293;-78
2023/04/23 02:43:45;;;;;;;11.63;3.53;;;;;;;;;;5114581;28;20190;-77
2023/04/23 02:46:12;;;;;;;11.97;3.80;;;;;;;;;;5115024;28;20280;-80
2023/04/23 02:48:42;;;;;;;11.97;3.50;;;;;;;;;;5115110;28;20601;-80
2023/04/23 02:51:10;;;;;;;9.83;3.73;;;;;;;;;;5114605;28;20236;-79
2023/04/23 02:53:37;;;;;;;7.07;3.40;;;;;;;;;;5114578;28;20233;-80
2023/04/23 02:56:06;;;;;;;13.13;4.30;;;;;;;;;;5114600;28;20756;-79
2023/04/23 02:58:33;;;;;;;9.73;3.60;;;;;;;;;;5114013;28;20201;-79
2023/04/23 03:01:00;;;;;;;9.50;3.47;;;;;;;;;;5114354;28;20190;-79
2023/04/23 03:03:30;;;;;;;7.77;3.30;;;;;;;;;;5114308;28;20318;-79
2023/04/23 03:05:59;;;;;;;9.23;3.33;;;;;;;;;;5114726;28;20211;-79
2023/04/23 03:08:26;;;;;;;7.60;3.30;;;;;;;;;;5114376;28;20254;-79
2023/04/23 03:10:54;;;;;;;7.23;2.93;;;;;;;;;;5114259;28;20249;-78
2023/04/23 03:13:21;;;;;;;8.33;3.40;;;;;;;;;;5114209;28;20580;-78
2023/04/23 03:15:48;;;;;;;7.13;3.23;;;;;;;;;;5114422;28;20217;-79
2023/04/23 03:18:15;;;;;;;11.57;3.40;;;;;;;;;;5114309;28;20197;-78
2023/04/23 03:20:42;;;;;;;9.23;3.53;;;;;;;;;;5114181;28;20285;-79
2023/04/23 03:23:11;;;;;;;8.30;3.60;;;;;;;;;;5114315;28;20290;-79
2023/04/23 03:25:38;;;;;;;6.60;3.10;;;;;;;;;;5113693;28;20287;-79
2023/04/23 03:28:06;;;;;;;7.77;3.20;;;;;;;;;;5113834;28;20289;-79
2023/04/23 03:30:33;;;;;;;10.60;3.83;;;;;;;;;;5114274;28;20812;-79
2023/04/23 03:33:01;;;;;;;8.00;3.47;;;;;;;;;;5113940;28;20732;-79
2023/04/23 03:35:28;;;;;;;8.30;3.70;;;;;;;;;;5113597;28;20205;-78
2023/04/23 03:37:55;;;;;;;7.47;3.00;;;;;;;;;;5113726;28;20290;-78
2023/04/23 03:40:24;;;;;;;6.17;2.80;;;;;;;;;;5113045;28;20277;-77
2023/04/23 03:42:51;;;;;;;5.90;2.90;;;;;;;;;;5113077;28;20664;-79
2023/04/23 03:45:18;;;;;;;8.17;3.20;;;;;;;;;;5113921;28;20557;-79
2023/04/23 03:47:45;;;;;;;7.17;2.97;;;;;;;;;;5113683;28;20288;-79
2023/04/23 03:50:13;;;;;;;5.43;3.00;;;;;;;;;;5113390;28;20260;-79
2023/04/23 03:52:40;;;;;;;8.37;2.97;;;;;;;;;;5113388;28;20203;-79
2023/04/23 03:55:08;;;;;;;6.07;2.70;;;;;;;;;;5113582;28;20236;-79
2023/04/23 03:57:36;;;;;;;5.73;3.17;;;;;;;;;;5113070;28;20668;-79
2023/04/23 04:00:07;;;;;;;8.33;3.10;;;;;;;;;;5113575;28;20189;-79
2023/04/23 04:02:34;;;;;;;5.50;2.60;;;;;;;;;;5113208;27;20189;-79
2023/04/23 04:05:01;;;;;;;6.23;2.60;;;;;;;;;;5113182;28;20208;-78
2023/04/23 04:07:29;;;;;;;7.47;2.67;;;;;;;;;;5113551;28;20581;-79
2023/04/23 04:09:56;;;;;;;6.90;2.17;;;;;;;;;;5112545;28;20658;-80
2023/04/23 04:12:23;;;;;;;7.80;2.60;;;;;;;;;;5113624;28;20236;-78
2023/04/23 04:14:51;;;;;;;4.03;2.47;;;;;;;;;;5112691;28;20229;-77
2023/04/23 04:17:19;;;;;;;6.07;2.33;;;;;;;;;;5113032;28;20197;-77
2023/04/23 04:19:46;;;;;;;5.20;2.27;;;;;;;;;;5112831;28;20732;-80
2023/04/23 04:22:13;;;;;;;4.13;2.10;;;;;;;;;;5113257;28;20199;-77
2023/04/23 04:24:40;;;;;;;5.93;2.10;;;;;;;;;;5112494;28;20566;-80
2023/04/23 04:27:07;;;;;;;4.40;2.20;;;;;;;;;;5112860;28;20204;-78
2023/04/23 04:29:35;;;;;;;5.23;2.17;;;;;;;;;;5112824;28;20224;-79
2023/04/23 04:32:04;;;;;;;3.33;1.93;;;;;;;;;;5112918;28;20743;-78
2023/04/23 04:34:31;;;;;;;6.30;2.20;;;;;;;;;;5112752;28;20289;-79
2023/04/23 04:36:58;;;;;;;5.90;2.20;;;;;;;;;;5112964;28;20194;-81
2023/04/23 04:39:26;;;;;;;8.40;2.70;;;;;;;;;;5111818;28;20285;-80
2023/04/23 04:41:53;;;;;;;8.17;2.33;;;;;;;;;;5112879;28;20258;-80
2023/04/23 04:44:20;;;;;;;6.87;2.37;;;;;;;;;;5112463;28;20291;-79
2023/04/23 04:46:47;;;;;;;4.67;2.43;;;;;;;;;;5112451;28;20223;-79
2023/04/23 04:49:18;;;;;;;8.03;2.60;;;;;;;;;;5112355;28;20224;-79
2023/04/23 04:51:45;;;;;;;5.77;2.07;;;;;;;;;;5112074;28;20606;-79
2023/04/23 04:54:12;;;;;;;6.30;2.40;;;;;;;;;;5112279;28;20221;-78
2023/04/23 04:56:40;;;;;;;4.70;1.87;;;;;;;;;;5112166;28;20281;-80
2023/04/23 04:59:07;;;;;;;7.67;1.93;;;;;;;;;;5112399;28;20198;-79
2023/04/23 05:01:35;;;;;;;5.20;2.30;;;;;;;;;;5112320;28;20193;-79
2023/04/23 05:04:03;;;;;;;6.63;2.10;;;;;;;;;;5112174;28;20304;-79
2023/04/23 05:06:32;;;;;;;6.53;2.17;;;;;;;;;;5111983;28;20677;-79
2023/04/23 05:08:59;;;;;;;5.13;2.30;;;;;;;;;;5111924;28;20200;-80
2023/04/23 05:11:26;;;;;;;4.00;1.80;;;;;;;;;;5112083;28;20261;-77
2023/04/23 05:13:53;;;;;;;5.50;2.17;;;;;;;;;;5111810;28;20297;-79
2023/04/23 05:16:21;;;;;;;6.43;2.10;;;;;;;;;;5111983;28;20752;-79
2023/04/23 05:18:48;;;;;;;7.17;2.30;;;;;;;;;;5112275;28;20212;-79
2023/04/23 05:21:15;;;;;;;6.20;2.10;;;;;;;;;;5112105;28;20291;-79
2023/04/23 05:23:44;;;;;;;5.17;2.00;;;;;;;;;;5111358;28;20623;-79
2023/04/23 05:26:11;;;;;;;7.30;2.20;;;;;;;;;;5112059;28;20276;-79
2023/04/23 05:28:38;;;;;;;5.33;2.20;;;;;;;;;;5111949;28;20235;-78
2023/04/23 05:31:05;;;;;;;5.13;2.30;;;;;;;;;;5111943;28;20317;-79
2023/04/23 05:33:33;;;;;;;5.73;2.13;;;;;;;;;;5111876;28;20276;-79
2023/04/23 05:36:00;;;;;;;6.57;2.20;;;;;;;;;;5111612;28;20703;-75
2023/04/23 05:38:28;;;;;;;7.23;2.53;;;;;;;;;;5111682;28;20198;-78
2023/04/23 05:40:56;;;;;;;6.80;2.10;;;;;;;;;;5112110;28;20193;-78
2023/04/23 05:43:23;;;;;;;4.37;2.10;;;;;;;;;;5111183;28;20251;-77
2023/04/23 05:45:51;;;;;;;6.23;2.57;;;;;;;;;;5111936;28;20277;-79
2023/04/23 05:48:18;;;;;;;6.60;2.30;;;;;;;;;;5112178;28;20194;-79
2023/04/23 05:50:48;;;;;;;6.87;2.47;;;;;;;;;;5111340;28;20260;-78
2023/04/23 05:53:15;;;;;;;5.20;2.40;;;;;;;;;;5111686;28;20191;-78
2023/04/23 05:55:42;;;;;;;5.90;2.90;;;;;;;;;;5111692;28;20223;-79
2023/04/23 05:58:11;;;;;;;5.80;3.30;;;;;;;;;;5111764;28;20289;-79
2023/04/23 06:00:39;;;;;;;6.23;2.83;;;;;;;;;;5111704;28;20197;-78
2023/04/23 06:03:06;;;;;;;7.50;3.57;;;;;;;;;;5111560;28;20194;-78
2023/04/23 06:05:34;;;;;;;8.77;3.13;;;;;;;;;;5114510;28;20258;-79
2023/04/23 06:08:02;;;;;;;8.03;3.70;;;;;;;;;;5115625;28;20198;-79
2023/04/23 06:10:29;;;;;;;6.83;3.70;;;;;;;;;;5115231;28;20558;-78
2023/04/23 06:12:56;;;;;;;7.53;3.77;;;;;;;;;;5115575;28;20223;-79
2023/04/23 06:15:25;;;;;;;6.67;3.60;;;;;;;;;;5115541;28;20218;-78
2023/04/23 06:17:53;;;;;;;7.97;3.77;;;;;;;;;;5115712;28;20198;-78
2023/04/23 06:20:20;;;;;;;7.20;4.07;;;;;;;;;;5114798;28;20194;-77
2023/04/23 06:22:47;;;;;;;6.77;3.53;;;;;;;;;;5115236;28;20252;-79
2023/04/23 06:25:15;;;;;;;8.27;4.00;;;;;;;;;;5115273;28;20286;-78
2023/04/23 06:27:42;;;;;;;9.30;3.60;;;;;;;;;;5115506;28;20284;-78
2023/04/23 06:30:09;;;;;;;5.63;3.37;;;;;;;;;;5115300;28;20300;-79
2023/04/23 06:32:38;;;;;;;7.77;4.10;;;;;;;;;;5114866;28;20231;-78
2023/04/23 06:35:05;;;;;;;5.43;4.03;;;;;;;;;;5114708;28;20286;-78
2023/04/23 06:37:32;;;;;;;7.23;3.53;;;;;;;;;;5115137;28;20202;-79
2023/04/23 06:40:00;;;;;;;8.57;4.13;;;;;;;;;;5115002;28;20236;-78
2023/04/23 06:42:27;;;;;;;6.93;4.37;;;;;;;;;;5114759;28;20751;-78
2023/04/23 06:44:55;;;;;;;6.40;3.43;;;;;;;;;;5114808;28;20727;-78
2023/04/23 06:47:22;;;;;;;5.90;3.13;;;;;;;;;;5114512;28;20197;-79
2023/04/23 06:49:51;;;;;;;5.17;3.60;;;;;;;;;;5114857;28;20196;-78
2023/04/23 06:52:18;;;;;;;8.80;4.40;;;;;;;;;;5114813;28;20579;-79
2023/04/23 06:54:45;;;;;;;7.03;3.90;;;;;;;;;;5114472;28;20227;-79
2023/04/23 06:57:12;;;;;;;5.57;3.87;;;;;;;;;;5114770;28;20608;-79
2023/04/23 06:59:39;;;;;;;8.70;3.63;;;;;;;;;;5114449;28;20686;-79
2023/04/23 07:02:06;;;;;;;6.50;3.87;;;;;;;;;;5114765;28;20630;-80
2023/04/23 07:04:34;;;;;;;8.43;4.20;;;;;;;;;;5114197;28;20216;-78
2023/04/23 07:07:03;;;;;;;7.27;3.70;;;;;;;;;;5114527;28;20204;-79
2023/04/23 07:09:30;;;;;;;6.27;3.77;;;;;;;;;;5114720;28;20197;-78
2023/04/23 07:11:57;;;;;;;8.50;4.50;;;;;;;;;;5114155;28;20230;-79
2023/04/23 07:14:25;;;;;;;5.83;3.80;;;;;;;;;;5114228;28;20201;-78
2023/04/23 07:16:53;;;;;;;6.83;4.20;;;;;;;;;;5113836;28;20190;-79
2023/04/23 07:19:20;;;;;;;5.40;3.83;;;;;;;;;;5113561;28;20758;-79
2023/04/23 07:21:47;;;;;;;8.10;3.90;;;;;;;;;;5114303;28;20222;-79
2023/04/23 07:24:16;;;;;;;8.20;4.57;;;;;;;;;;5114111;28;20259;-79
2023/04/23 07:26:43;;;;;;;8.40;4.43;;;;;;;;;;5114312;28;20195;-78
2023/04/23 07:29:10;;;;;;;7.10;3.83;;;;;;;;;;5113959;28;20291;-78
2023/04/23 07:31:38;;;;;;;6.80;4.17;;;;;;;;;;5114160;28;20317;-80
2023/04/23 07:34:05;;;;;;;8.50;4.00;;;;;;;;;;5113567;28;20857;-79
2023/04/23 07:36:32;;;;;;;8.00;3.83;;;;;;;;;;5114144;28;20193;-80
2023/04/23 07:38:59;;;;;;;7.30;4.00;;;;;;;;;;5114091;28;20229;-79
2023/04/23 07:41:28;;;;;;;5.13;3.20;;;;;;;;;;5113369;28;20618;-78
2023/04/23 07:43:55;;;;;;;6.77;3.10;;;;;;;;;;5113686;28;20291;-80
2023/04/23 07:46:22;;;;;;;5.90;3.40;;;;;;;;;;5113657;28;20293;-79
2023/04/23 07:48:50;;;;;;;6.10;2.90;;;;;;;;;;5113458;28;20846;-79
2023/04/23 07:51:18;;;;;;;6.67;2.80;;;;;;;;;;5113601;28;20201;-79
2023/04/23 07:53:45;;;;;;;6.43;3.10;;;;;;;;;;5113651;28;20221;-79
2023/04/23 07:56:13;;;;;;;6.30;3.00;;;;;;;;;;5113635;28;20197;-78
2023/04/23 07:58:41;;;;;;;7.87;3.00;;;;;;;;;;5113494;28;20248;-79
2023/04/23 08:01:09;;;;;;;4.23;2.10;;;;;;;;;;5113152;28;20277;-80
2023/04/23 08:03:36;;;;;;;3.87;1.63;;;;;;;;;;5113391;28;20222;-80
2023/04/23 08:06:04;;;;;;;1.50;0.80;;;;;;;;;;5113467;28;20330;-78
2023/04/23 08:08:31;;;;;;;2.50;1.00;;;;;;;;;;5113542;28;20205;-79
2023/04/23 08:10:58;;;;;;;1.40;0.90;;;;;;;;;;5113039;28;20289;-78
2023/04/23 08:13:25;;;;;;;1.40;0.63;;;;;;;;;;5112911;28;20229;-78
2023/04/23 08:15:54;;;;;;;1.07;0.50;;;;;;;;;;5112584;28;20292;-79
2023/04/23 08:18:21;;;;;;;1.47;0.30;;;;;;;;;;5113551;28;20216;-79
2023/04/23 08:20:49;;;;;;;0.10;0.10;;;;;;;;;;5112838;28;20588;-79
2023/04/23 08:23:16;;;;;;;0.00;0.00;;;;;;;;;;5112700;28;20288;-78
2023/04/23 08:25:43;;;;;;;0.70;0.20;;;;;;;;;;5112709;28;20281;-79
2023/04/23 08:28:11;;;;;;;0.13;0.10;;;;;;;;;;5112386;28;20244;-79
2023/04/23 08:30:38;;;;;;;0.10;0.10;;;;;;;;;;5112496;28;20225;-78
2023/04/23 08:33:06;;;;;;;0.73;0.10;;;;;;;;;;5112901;28;20308;-79
2023/04/23 08:35:33;;;;;;;0.03;0.00;;;;;;;;;;5112462;28;20289;-79
2023/04/23 08:38:00;;;;;;;0.40;0.10;;;;;;;;;;5112698;28;20208;-78
2023/04/23 08:40:30;;;;;;;1.60;0.13;;;;;;;;;;5112924;28;20284;-77
2023/04/23 08:42:58;;;;;;;0.20;0.10;;;;;;;;;;5112593;28;20316;-78
2023/04/23 08:45:26;;;;;;;0.80;0.20;;;;;;;;;;5112088;28;20234;-78
2023/04/23 08:47:54;;;;;;;0.93;0.27;;;;;;;;;;5112545;28;20657;-78
2023/04/23 08:50:23;;;;;;;0.43;0.23;;;;;;;;;;5112418;28;20687;-79
2023/04/23 08:52:53;;;;;;;0.50;0.40;;;;;;;;;;5112242;28;20712;-78
2023/04/23 08:55:21;;;;;;;0.93;0.50;;;;;;;;;;5112580;28;20218;-78
2023/04/23 08:57:49;;;;;;;0.80;0.30;;;;;;;;;;5112268;28;20292;-79
2023/04/23 09:00:17;;;;;;;0.53;0.30;;;;;;;;;;5111732;28;20194;-78
2023/04/23 09:02:45;;;;;;;1.97;0.60;;;;;;;;;;5112467;28;20292;-79
2023/04/23 09:05:12;;;;;;;0.90;0.40;;;;;;;;;;5112172;28;20222;-79
2023/04/23 09:07:41;;;;;;;0.73;0.40;;;;;;;;;;5111946;28;20193;-79
2023/04/23 09:10:10;;;;;;;0.33;0.33;;;;;;;;;;5112205;28;20240;-79
2023/04/23 09:12:39;;;;;;;0.80;0.40;;;;;;;;;;5112100;28;20264;-79
2023/04/23 09:15:09;;;;;;;1.47;0.40;;;;;;;;;;5111756;28;20270;-79
2023/04/23 09:17:37;;;;;;;0.60;0.30;;;;;;;;;;5111834;28;20194;-79
2023/04/23 09:20:05;;;;;;;1.23;0.67;;;;;;;;;;5111771;28;20293;-79
2023/04/23 09:22:39;;;;;;;1.17;0.40;;;;;;;;;;5112187;28;20291;-79
2023/04/23 09:25:08;;;;;;;1.00;0.47;;;;;;;;;;5112472;28;20296;-79
2023/04/23 09:27:36;;;;;;;0.70;0.30;;;;;;;;;;5111954;28;20289;-79
2023/04/23 09:30:06;;;;;;;0.63;0.50;;;;;;;;;;5111523;28;20190;-79
2023/04/23 09:32:34;;;;;;;1.57;0.40;;;;;;;;;;5111717;28;20689;-80
2023/04/23 09:35:03;;;;;;;0.53;0.30;;;;;;;;;;5111940;28;20198;-79
2023/04/23 09:37:30;;;;;;;0.80;0.40;;;;;;;;;;5111718;28;20697;-80
2023/04/23 09:39:59;;;;;;;1.00;0.53;;;;;;;;;;5114333;28;20193;-80
2023/04/23 09:42:29;;;;;;;1.13;0.50;;;;;;;;;;5115904;28;20278;-79
2023/04/23 09:44:57;;;;;;;1.37;0.70;;;;;;;;;;5115858;28;20314;-80
2023/04/23 09:47:24;;;;;;;0.95;0.40;;;;;;;;;;5116002;28;20198;-79
2023/04/23 09:49:52;;;;;;;1.70;0.40;;;;;;;;;;5115532;28;20225;-79
2023/04/23 09:52:21;;;;;;;1.42;0.40;;;;;;;;;;5116193;28;20229;-78
2023/04/23 09:54:48;;;;;;;1.25;0.40;;;;;;;;;;5115925;27;20685;-79
2023/04/23 09:57:16;;;;;;;0.32;0.25;;;;;;;;;;5115854;28;20194;-79
2023/04/23 09:59:45;;;;;;;0.68;0.30;;;;;;;;;;5115720;28;20639;-80
2023/04/23 10:02:12;;;;;;;1.17;0.57;;;;;;;;;;5115633;28;20197;-80
2023/04/23 10:04:40;;;;;;;1.15;0.43;;;;;;;;;;5115668;28;20734;-79
2023/04/23 10:07:12;;;;;;;1.23;0.57;;;;;;;;;;5115509;28;20221;-79
2023/04/23 10:09:40;;;;;;;1.17;0.50;;;;;;;;;;5115722;28;20230;-79
2023/04/23 10:12:07;;;;;;;0.93;0.60;;;;;;;;;;5115332;28;20291;-80
2023/04/23 10:14:34;;;;;;;1.27;0.40;;;;;;;;;;5115509;28;20198;-80
2023/04/23 10:17:03;;;;;;;0.82;0.45;;;;;;;;;;5115334;28;20292;-81
2023/04/23 10:19:32;;;;;;;1.03;0.43;;;;;;;;;;5115207;28;20201;-80
2023/04/23 10:22:03;;;;;;;1.70;0.70;;;;;;;;;;5115793;28;20285;-80
2023/04/23 10:24:33;;;;;;;1.90;0.80;;;;;;;;;;5115288;28;20347;-80
2023/04/23 10:27:01;;;;;;;1.90;0.80;;;;;;;;;;5114916;28;20267;-79
2023/04/23 10:29:29;;;;;;;3.77;0.90;;;;;;;;;;5115469;28;20198;-79
2023/04/23 10:31:56;;;;;;;4.80;0.93;;;;;;;;;;5114998;28;20198;-79
2023/04/23 10:34:26;;;;;;;3.10;1.17;;;;;;;;;;5115222;28;20194;-81
2023/04/23 10:36:53;;;;;;;3.17;1.00;;;;;;;;;;5115057;28;20194;-81
2023/04/23 10:39:21;;;;;;;2.03;0.90;;;;;;;;;;5114967;28;20293;-80
2023/04/23 10:41:49;;;;;;;5.00;0.80;;;;;;;;;;5114341;28;20336;-80
2023/04/23 10:44:16;;;;;;;3.13;1.00;;;;;;;;;;5115052;28;20267;-80
2023/04/23 10:46:51;;;;;;;2.78;0.82;;;;;;;;;;5114799;28;20573;-80
2023/04/23 10:49:18;;;;;;;2.17;0.90;;;;;;;;;;5115041;28;20201;-80
2023/04/23 10:51:48;;;;;;;2.88;0.98;;;;;;;;;;5114128;28;20230;-80
2023/04/23 10:54:16;;;;;;;1.95;0.93;;;;;;;;;;5114827;28;20244;-81
2023/04/23 10:56:43;;;;;;;2.35;1.00;;;;;;;;;;5114252;28;20190;-80
2023/04/23 10:59:19;;;;;;;2.03;0.80;;;;;;;;;;5114771;28;20285;-80
2023/04/23 11:01:47;;;;;;;3.97;1.00;;;;;;;;;;5114483;28;20193;-80
2023/04/23 11:04:21;;;;;;;2.95;1.10;;;;;;;;;;5114592;28;20223;-80
2023/04/23 11:06:54;;;;;;;2.88;1.08;;;;;;;;;;5114502;28;20219;-80
2023/04/23 11:09:31;;;;;;;3.08;0.70;;;;;;;;;;5114688;28;20194;-80
2023/04/23 11:12:00;;;;;;;5.03;1.05;;;;;;;;;;5114545;28;20224;-81
2023/04/23 11:14:37;;;;;;;3.75;0.98;;;;;;;;;;5114191;28;20231;-78
2023/04/23 11:17:05;;;;;;;3.50;1.30;;;;;;;;;;5114350;28;20276;-80
2023/04/23 11:19:35;;;;;;;3.83;1.15;;;;;;;;;;5114630;28;20250;-80
2023/04/23 11:22:06;;;;;;;2.75;0.82;;;;;;;;;;5114217;28;20284;-80
2023/04/23 11:24:36;;;;;;;3.55;0.98;;;;;;;;;;5113595;28;20194;-80
2023/04/23 11:27:05;;;;;;;2.75;1.08;;;;;;;;;;5114409;28;20197;-80
2023/04/23 11:29:32;;;;;;;3.83;1.30;;;;;;;;;;5114014;28;20289;-81
2023/04/23 11:32:00;;;;;;;4.22;1.20;;;;;;;;;;5113785;28;20194;-81
2023/04/23 11:34:28;;;;;;;2.50;0.90;;;;;;;;;;5114092;28;20230;-80
2023/04/23 11:36:57;;;;;;;1.50;0.70;;;;;;;;;;5113923;28;20233;-80
2023/04/23 11:39:25;;;;;;;2.33;0.90;;;;;;;;;;5113870;28;20228;-80
2023/04/23 11:41:53;;;;;;;1.67;0.90;;;;;;;;;;5113786;28;20253;-80
2023/04/23 11:44:20;;;;;;;2.97;1.02;;;;;;;;;;5113828;28;20201;-80
2023/04/23 11:46:48;;;;;;;3.53;1.02;;;;;;;;;;5113791;28;20190;-80
2023/04/23 11:49:16;;;;;;;2.77;1.00;;;;;;;;;;5113808;28;20194;-80
2023/04/23 11:51:43;;;;;;;2.60;1.20;;;;;;;;;;5113900;28;20221;-80
2023/04/23 11:54:12;;;;;;;3.70;1.37;;;;;;;;;;5112830;28;20721;-80
2023/04/23 11:56:41;;;;;;;2.77;1.60;;;;;;;;;;5113572;28;20194;-79
2023/04/23 11:59:08;;;;;;;4.97;1.80;;;;;;;;;;5113551;28;20285;-81
2023/04/23 12:01:42;;;;;;;2.87;1.53;;;;;;;;;;5113184;28;20285;-79
2023/04/23 12:04:10;;;;;;;5.47;1.83;;;;;;;;;;5113362;28;20595;-80
2023/04/23 12:06:38;;;;;;;2.40;1.20;;;;;;;;;;5113001;28;20658;-79
2023/04/23 12:09:05;;;;;;;5.07;1.33;;;;;;;;;;5113443;28;20221;-80
2023/04/23 12:11:32;;;;;;;2.93;1.93;;;;;;;;;;5113326;28;20288;-79
2023/04/23 12:14:00;;;;;;;4.00;1.57;;;;;;;;;;5113124;28;20320;-79
2023/04/23 12:16:34;;;;;;;2.67;1.30;;;;;;;;;;5113265;28;20208;-80
2023/04/23 12:19:02;;;;;;;2.63;1.10;;;;;;;;;;5113617;28;20208;-80
2023/04/23 12:21:29;;;;;;;2.43;0.60;;;;;;;;;;5112834;28;20284;-79
2023/04/23 12:23:57;;;;;;;1.37;0.67;;;;;;;;;;5112416;28;20193;-80
2023/04/23 12:26:25;;;;;;;1.57;1.03;;;;;;;;;;5113015;28;20194;-80
2023/04/23 12:28:53;;;;;;;2.40;1.10;;;;;;;;;;5113574;28;20281;-80
2023/04/23 12:31:22;;;;;;;3.37;1.00;;;;;;;;;;5112810;28;20299;-80
2023/04/23 12:33:54;;;;;;;2.13;1.00;;;;;;;;;;5113066;28;20229;-79
2023/04/23 12:36:21;;;;;;;3.33;1.10;;;;;;;;;;5112925;28;20198;-80
2023/04/23 12:38:48;;;;;;;2.67;1.10;;;;;;;;;;5112443;28;20281;-80
2023/04/23 12:41:15;;;;;;;3.00;1.33;;;;;;;;;;5112285;28;20285;-80
2023/04/23 12:43:47;;;;;;;5.03;1.43;;;;;;;;;;5113041;28;20285;-80
2023/04/23 12:46:17;;;;;;;2.37;0.60;;;;;;;;;;5112372;28;20202;-79
2023/04/23 12:48:45;;;;;;;2.57;0.90;;;;;;;;;;5112389;28;20190;-79
2023/04/23 12:51:12;;;;;;;0.93;0.50;;;;;;;;;;5112159;28;20224;-79
2023/04/23 12:53:39;;;;;;;0.83;0.40;;;;;;;;;;5112545;28;20308;-78
2023/04/23 12:56:07;;;;;;;1.83;0.50;;;;;;;;;;5112739;28;20222;-79
2023/04/23 12:58:34;;;;;;;1.00;0.40;;;;;;;;;;5112395;28;20285;-79
2023/04/23 13:01:01;;;;;;;1.63;0.50;;;;;;;;;;5112248;28;20285;-79
2023/04/23 13:03:28;;;;;;;2.50;0.60;;;;;;;;;;5112486;28;20240;-78
2023/04/23 13:05:57;;;;;;;1.27;0.40;;;;;;;;;;5111475;28;20197;-79
2023/04/23 13:08:24;;;;;;;1.33;0.60;;;;;;;;;;5112420;28;20625;-79
2023/04/23 13:10:51;;;;;;;0.60;0.43;;;;;;;;;;5112297;28;20296;-79
2023/04/23 13:13:18;;;;;;;0.57;0.40;;;;;;;;;;5111968;28;20341;-78
2023/04/23 13:15:45;;;;;;;1.07;0.50;;;;;;;;;;5112405;28;20318;-79
2023/04/23 13:18:12;;;;;;;1.10;0.60;;;;;;;;;;5112201;28;20225;-79
2023/04/23 13:20:40;;;;;;;0.60;0.50;;;;;;;;;;5111578;28;20289;-79
2023/04/23 13:23:10;;;;;;;0.67;0.50;;;;;;;;;;5112285;28;20293;-78
2023/04/23 13:25:37;;;;;;;1.27;0.60;;;;;;;;;;5112164;28;20194;-79
2023/04/23 13:28:04;;;;;;;1.10;0.50;;;;;;;;;;5112249;28;20293;-79
2023/04/23 13:30:31;;;;;;;2.53;1.10;;;;;;;;;;5112155;28;20289;-79
2023/04/23 13:32:58;;;;;;;1.97;0.60;;;;;;;;;;5112032;28;20627;-79
2023/04/23 13:35:26;;;;;;;1.67;0.63;;;;;;;;;;5111567;28;20190;-79
2023/04/23 13:37:53;;;;;;;1.20;1.03;;;;;;;;;;5111988;28;20202;-79
2023/04/23 13:40:21;;;;;;;1.43;0.80;;;;;;;;;;5111839;28;20276;-79
2023/04/23 13:42:49;;;;;;;1.17;0.60;;;;;;;;;;5111473;28;20308;-79
2023/04/23 13:45:17;;;;;;;1.70;0.90;;;;;;;;;;5111767;28;20193;-78
2023/04/23 13:47:44;;;;;;;0.93;0.70;;;;;;;;;;5111685;28;20761;-79
2023/04/23 13:50:11;;;;;;;1.27;0.87;;;;;;;;;;5111555;28;20285;-78
2023/04/23 13:52:39;;;;;;;1.00;0.77;;;;;;;;;;5111801;28;20289;-78
2023/04/23 13:55:08;;;;;;;0.93;0.80;;;;;;;;;;5112081;28;20217;-79
2023/04/23 13:57:37;;;;;;;2.28;0.80;;;;;;;;;;5111612;28;20197;-79
2023/04/23 14:00:04;;;;;;;1.23;0.88;;;;;;;;;;5111692;28;20683;-79
2023/04/23 14:02:31;;;;;;;1.13;1.00;;;;;;;;;;5112174;28;20225;-79
2023/04/23 14:04:59;;;;;;;1.05;0.93;;;;;;;;;;5111552;28;20281;-79
2023/04/23 14:07:26;;;;;;;1.57;0.93;;;;;;;;;;5111564;28;20225;-79
2023/04/23 14:09:53;;;;;;;1.35;1.10;;;;;;;;;;5112097;28;20293;-79
2023/04/23 14:12:20;;;;;;;1.10;0.82;;;;;;;;;;5111808;28;20198;-79
2023/04/23 14:14:49;;;;;;;0.75;0.75;;;;;;;;;;5111278;28;21013;-79
2023/04/23 14:17:16;;;;;;;1.90;1.15;;;;;;;;;;5111414;28;20229;-79
2023/04/23 14:19:43;;;;;;;1.38;0.93;;;;;;;;;;5111216;28;20217;-79
2023/04/23 14:22:10;;;;;;;1.02;0.80;;;;;;;;;;5111566;28;20292;-79
2023/04/23 14:24:40;;;;;;;1.42;1.00;;;;;;;;;;5111336;28;20194;-78
2023/04/23 14:27:07;;;;;;;1.15;0.80;;;;;;;;;;5115651;28;20285;-79
2023/04/23 14:29:36;;;;;;;1.17;0.80;;;;;;;;;;5115185;28;20193;-79
2023/04/23 14:32:05;;;;;;;1.88;0.90;;;;;;;;;;5115078;28;20907;-79
2023/04/23 14:34:33;;;;;;;2.58;1.33;;;;;;;;;;5114649;28;20236;-79
2023/04/23 14:37:00;;;;;;;1.60;1.20;;;;;;;;;;5115420;28;20658;-80
2023/04/23 14:39:28;;;;;;;1.97;1.70;;;;;;;;;;5114942;28;21055;-79
2023/04/23 14:41:55;;;;;;;3.30;1.60;;;;;;;;;;5114946;28;20233;-78
2023/04/23 14:44:25;;;;;;;3.77;1.70;;;;;;;;;;5115232;28;20280;-79